sensor_id;sensor_type;location;lat;lon;timestamp;P1;durP1;ratioP1;P2;durP2;ratioP2
77955;SDS011;67152;36.266;32.294;2023-08-06T00:01:13;25.25;;;8.32;;
77955;SDS011;67152;36.266;32.294;2023-08-06T00:03:40;18.98;;;8.95;;
77955;SDS011;67152;36.266;32.294;2023-08-06T00:06:06;26.90;;;9.82;;
77955;SDS011;67152;36.266;32.294;2023-08-06T00:08:34;23.17;;;9.52;;
77955;SDS011;67152;36.266;32.294;2023-08-06T00:11:00;23.83;;;9.18;;
77955;SDS011;67152;36.266;32.294;2023-08-06T00:13:27;22.98;;;10.07;;
77955;SDS011;67152;36.266;32.294;2023-08-06T00:15:53;24.60;;;9.70;;
77955;SDS011;67152;36.266;32.294;2023-08-06T00:18:20;22.02;;;9.80;;
77955;SDS011;67152;36.266;32.294;2023-08-06T00:20:47;24.80;;;10.20;;
77955;SDS011;67152;36.266;32.294;2023-08-06T00:23:14;21.70;;;9.07;;
77955;SDS011;67152;36.266;32.294;2023-08-06T00:25:41;17.77;;;9.13;;
77955;SDS011;67152;36.266;32.294;2023-08-06T00:28:08;20.85;;;7.85;;
77955;SDS011;67152;36.266;32.294;2023-08-06T00:30:56;21.45;;;7.35;;
77955;SDS011;67152;36.266;32.294;2023-08-06T00:33:23;18.00;;;7.80;;
77955;SDS011;67152;36.266;32.294;2023-08-06T00:35:50;18.27;;;7.82;;
77955;SDS011;67152;36.266;32.294;2023-08-06T00:38:17;18.98;;;7.13;;
77955;SDS011;67152;36.266;32.294;2023-08-06T00:40:43;21.63;;;8.70;;
77955;SDS011;67152;36.266;32.294;2023-08-06T00:43:10;18.02;;;7.60;;
77955;SDS011;67152;36.266;32.294;2023-08-06T00:45:37;21.92;;;8.23;;
77955;SDS011;67152;36.266;32.294;2023-08-06T00:50:30;20.50;;;7.63;;
77955;SDS011;67152;36.266;32.294;2023-08-06T00:52:56;27.08;;;9.30;;
77955;SDS011;67152;36.266;32.294;2023-08-06T00:55:23;23.92;;;8.73;;
77955;SDS011;67152;36.266;32.294;2023-08-06T00:57:50;24.30;;;8.50;;
77955;SDS011;67152;36.266;32.294;2023-08-06T01:00:19;20.65;;;8.70;;
77955;SDS011;67152;36.266;32.294;2023-08-06T01:02:46;22.52;;;8.40;;
77955;SDS011;67152;36.266;32.294;2023-08-06T01:05:13;26.17;;;9.43;;
77955;SDS011;67152;36.266;32.294;2023-08-06T01:13:34;20.38;;;9.10;;
77955;SDS011;67152;36.266;32.294;2023-08-06T01:16:03;23.38;;;9.02;;
77955;SDS011;67152;36.266;32.294;2023-08-06T01:18:33;21.77;;;9.38;;
77955;SDS011;67152;36.266;32.294;2023-08-06T01:21:16;24.10;;;9.75;;
77955;SDS011;67152;36.266;32.294;2023-08-06T01:23:48;31.85;;;9.38;;
77955;SDS011;67152;36.266;32.294;2023-08-06T01:28:59;25.65;;;8.55;;
77955;SDS011;67152;36.266;32.294;2023-08-06T01:31:39;29.23;;;8.43;;
77955;SDS011;67152;36.266;32.294;2023-08-06T01:34:09;31.38;;;9.23;;
77955;SDS011;67152;36.266;32.294;2023-08-06T01:36:39;20.63;;;8.30;;
77955;SDS011;67152;36.266;32.294;2023-08-06T01:39:06;21.20;;;7.70;;
77955;SDS011;67152;36.266;32.294;2023-08-06T01:41:32;21.08;;;8.88;;
77955;SDS011;67152;36.266;32.294;2023-08-06T01:43:59;21.95;;;8.57;;
77955;SDS011;67152;36.266;32.294;2023-08-06T01:46:27;21.98;;;8.23;;
77955;SDS011;67152;36.266;32.294;2023-08-06T01:49:06;17.08;;;8.65;;
77955;SDS011;67152;36.266;32.294;2023-08-06T01:51:33;22.70;;;9.40;;
77955;SDS011;67152;36.266;32.294;2023-08-06T01:53:59;20.95;;;8.70;;
77955;SDS011;67152;36.266;32.294;2023-08-06T01:56:26;26.45;;;10.18;;
77955;SDS011;67152;36.266;32.294;2023-08-06T01:58:52;25.10;;;9.25;;
77955;SDS011;67152;36.266;32.294;2023-08-06T02:01:19;25.17;;;9.50;;
77955;SDS011;67152;36.266;32.294;2023-08-06T02:04:11;18.63;;;9.70;;
77955;SDS011;67152;36.266;32.294;2023-08-06T02:06:38;22.20;;;9.45;;
77955;SDS011;67152;36.266;32.294;2023-08-06T02:09:05;24.40;;;9.70;;
77955;SDS011;67152;36.266;32.294;2023-08-06T02:11:32;25.05;;;9.52;;
77955;SDS011;67152;36.266;32.294;2023-08-06T02:13:58;32.78;;;10.63;;
77955;SDS011;67152;36.266;32.294;2023-08-06T02:16:25;19.25;;;9.93;;
77955;SDS011;67152;36.266;32.294;2023-08-06T02:18:54;26.48;;;10.13;;
77955;SDS011;67152;36.266;32.294;2023-08-06T02:21:32;25.40;;;11.10;;
77955;SDS011;67152;36.266;32.294;2023-08-06T02:24:05;21.50;;;10.93;;
77955;SDS011;67152;36.266;32.294;2023-08-06T02:26:32;21.48;;;11.70;;
77955;SDS011;67152;36.266;32.294;2023-08-06T02:28:59;16.65;;;9.27;;
77955;SDS011;67152;36.266;32.294;2023-08-06T02:31:29;17.08;;;10.02;;
77955;SDS011;67152;36.266;32.294;2023-08-06T02:34:00;24.95;;;10.40;;
77955;SDS011;67152;36.266;32.294;2023-08-06T02:36:30;18.52;;;10.15;;
77955;SDS011;67152;36.266;32.294;2023-08-06T02:39:17;20.70;;;9.82;;
77955;SDS011;67152;36.266;32.294;2023-08-06T02:41:48;19.52;;;10.93;;
77955;SDS011;67152;36.266;32.294;2023-08-06T02:44:14;20.08;;;9.55;;
77955;SDS011;67152;36.266;32.294;2023-08-06T02:46:41;24.52;;;10.23;;
77955;SDS011;67152;36.266;32.294;2023-08-06T02:49:07;17.45;;;9.60;;
77955;SDS011;67152;36.266;32.294;2023-08-06T02:51:34;22.70;;;9.50;;
77955;SDS011;67152;36.266;32.294;2023-08-06T02:54:00;19.48;;;9.30;;
77955;SDS011;67152;36.266;32.294;2023-08-06T02:56:27;24.55;;;10.30;;
77955;SDS011;67152;36.266;32.294;2023-08-06T02:58:55;20.35;;;10.40;;
77955;SDS011;67152;36.266;32.294;2023-08-06T03:01:25;16.65;;;9.00;;
77955;SDS011;67152;36.266;32.294;2023-08-06T03:03:53;20.08;;;9.23;;
77955;SDS011;67152;36.266;32.294;2023-08-06T03:06:20;17.45;;;9.05;;
77955;SDS011;67152;36.266;32.294;2023-08-06T03:08:46;20.50;;;8.68;;
77955;SDS011;67152;36.266;32.294;2023-08-06T03:11:13;22.13;;;9.50;;
77955;SDS011;67152;36.266;32.294;2023-08-06T03:13:40;19.73;;;8.65;;
77955;SDS011;67152;36.266;32.294;2023-08-06T03:16:06;18.55;;;9.85;;
77955;SDS011;67152;36.266;32.294;2023-08-06T03:18:33;21.05;;;9.40;;
77955;SDS011;67152;36.266;32.294;2023-08-06T03:20:59;19.88;;;9.60;;
77955;SDS011;67152;36.266;32.294;2023-08-06T03:23:26;26.77;;;10.15;;
77955;SDS011;67152;36.266;32.294;2023-08-06T03:25:52;24.02;;;10.27;;
77955;SDS011;67152;36.266;32.294;2023-08-06T03:28:19;16.48;;;9.45;;
77955;SDS011;67152;36.266;32.294;2023-08-06T03:30:45;15.88;;;9.68;;
77955;SDS011;67152;36.266;32.294;2023-08-06T03:33:12;20.95;;;10.05;;
77955;SDS011;67152;36.266;32.294;2023-08-06T03:35:38;17.17;;;10.73;;
77955;SDS011;67152;36.266;32.294;2023-08-06T03:38:05;14.45;;;9.70;;
77955;SDS011;67152;36.266;32.294;2023-08-06T03:40:31;17.80;;;10.60;;
77955;SDS011;67152;36.266;32.294;2023-08-06T03:42:58;18.58;;;10.02;;
77955;SDS011;67152;36.266;32.294;2023-08-06T03:45:24;19.67;;;10.07;;
77955;SDS011;67152;36.266;32.294;2023-08-06T03:47:51;16.33;;;9.32;;
77955;SDS011;67152;36.266;32.294;2023-08-06T03:50:17;22.40;;;10.80;;
77955;SDS011;67152;36.266;32.294;2023-08-06T03:52:44;18.63;;;10.88;;
77955;SDS011;67152;36.266;32.294;2023-08-06T03:55:11;17.10;;;10.63;;
77955;SDS011;67152;36.266;32.294;2023-08-06T03:57:37;18.05;;;9.70;;
77955;SDS011;67152;36.266;32.294;2023-08-06T04:00:04;20.40;;;9.30;;
77955;SDS011;67152;36.266;32.294;2023-08-06T04:02:31;19.40;;;9.85;;
77955;SDS011;67152;36.266;32.294;2023-08-06T04:04:58;20.88;;;9.93;;
77955;SDS011;67152;36.266;32.294;2023-08-06T04:09:54;19.13;;;9.95;;
77955;SDS011;67152;36.266;32.294;2023-08-06T04:12:23;26.75;;;10.20;;
77955;SDS011;67152;36.266;32.294;2023-08-06T04:14:50;28.70;;;10.05;;
77955;SDS011;67152;36.266;32.294;2023-08-06T04:17:18;17.08;;;9.98;;
77955;SDS011;67152;36.266;32.294;2023-08-06T04:19:51;16.95;;;9.73;;
77955;SDS011;67152;36.266;32.294;2023-08-06T04:22:19;20.52;;;10.60;;
77955;SDS011;67152;36.266;32.294;2023-08-06T04:24:46;19.42;;;10.10;;
77955;SDS011;67152;36.266;32.294;2023-08-06T04:34:32;16.52;;;8.95;;
77955;SDS011;67152;36.266;32.294;2023-08-06T04:36:59;15.80;;;9.00;;
77955;SDS011;67152;36.266;32.294;2023-08-06T04:39:26;16.85;;;8.90;;
77955;SDS011;67152;36.266;32.294;2023-08-06T04:41:53;17.98;;;10.40;;
77955;SDS011;67152;36.266;32.294;2023-08-06T04:44:20;18.27;;;10.10;;
77955;SDS011;67152;36.266;32.294;2023-08-06T04:46:47;29.17;;;10.80;;
77955;SDS011;67152;36.266;32.294;2023-08-06T04:49:13;20.33;;;9.75;;
77955;SDS011;67152;36.266;32.294;2023-08-06T04:51:40;22.67;;;9.95;;
77955;SDS011;67152;36.266;32.294;2023-08-06T04:54:06;26.48;;;9.65;;
77955;SDS011;67152;36.266;32.294;2023-08-06T04:56:32;19.63;;;9.57;;
77955;SDS011;67152;36.266;32.294;2023-08-06T04:58:59;13.85;;;8.52;;
77955;SDS011;67152;36.266;32.294;2023-08-06T05:01:25;21.23;;;9.45;;
77955;SDS011;67152;36.266;32.294;2023-08-06T05:03:52;22.40;;;8.80;;
77955;SDS011;67152;36.266;32.294;2023-08-06T05:06:19;20.52;;;8.10;;
77955;SDS011;67152;36.266;32.294;2023-08-06T05:08:45;20.13;;;7.60;;
77955;SDS011;67152;36.266;32.294;2023-08-06T05:11:12;27.27;;;8.80;;
77955;SDS011;67152;36.266;32.294;2023-08-06T05:13:38;25.48;;;8.18;;
77955;SDS011;67152;36.266;32.294;2023-08-06T05:16:24;38.00;;;7.60;;
77955;SDS011;67152;36.266;32.294;2023-08-06T05:23:43;18.30;;;4.88;;
77955;SDS011;67152;36.266;32.294;2023-08-06T05:26:09;21.17;;;5.57;;
77955;SDS011;67152;36.266;32.294;2023-08-06T05:28:36;17.27;;;5.72;;
77955;SDS011;67152;36.266;32.294;2023-08-06T05:31:03;14.60;;;5.63;;
77955;SDS011;67152;36.266;32.294;2023-08-06T05:33:30;18.65;;;5.35;;
77955;SDS011;67152;36.266;32.294;2023-08-06T05:35:57;14.02;;;5.28;;
77955;SDS011;67152;36.266;32.294;2023-08-06T05:38:24;18.27;;;5.10;;
77955;SDS011;67152;36.266;32.294;2023-08-06T05:40:50;15.25;;;5.20;;
77955;SDS011;67152;36.266;32.294;2023-08-06T05:43:17;17.75;;;4.30;;
77955;SDS011;67152;36.266;32.294;2023-08-06T05:45:44;16.02;;;5.53;;
77955;SDS011;67152;36.266;32.294;2023-08-06T05:48:12;17.33;;;4.78;;
77955;SDS011;67152;36.266;32.294;2023-08-06T05:50:39;13.45;;;4.78;;
77955;SDS011;67152;36.266;32.294;2023-08-06T05:53:05;15.38;;;5.22;;
77955;SDS011;67152;36.266;32.294;2023-08-06T05:55:32;21.50;;;5.60;;
77955;SDS011;67152;36.266;32.294;2023-08-06T05:57:58;12.00;;;4.40;;
77955;SDS011;67152;36.266;32.294;2023-08-06T06:00:25;14.43;;;4.82;;
77955;SDS011;67152;36.266;32.294;2023-08-06T06:02:52;15.20;;;4.93;;
77955;SDS011;67152;36.266;32.294;2023-08-06T06:05:18;11.38;;;4.35;;
77955;SDS011;67152;36.266;32.294;2023-08-06T06:07:45;10.15;;;4.18;;
77955;SDS011;67152;36.266;32.294;2023-08-06T06:10:11;19.65;;;5.32;;
77955;SDS011;67152;36.266;32.294;2023-08-06T06:12:38;13.98;;;4.63;;
77955;SDS011;67152;36.266;32.294;2023-08-06T06:15:06;17.13;;;4.50;;
77955;SDS011;67152;36.266;32.294;2023-08-06T06:17:33;19.83;;;5.28;;
77955;SDS011;67152;36.266;32.294;2023-08-06T06:19:59;12.32;;;4.90;;
77955;SDS011;67152;36.266;32.294;2023-08-06T06:22:26;20.45;;;4.85;;
77955;SDS011;67152;36.266;32.294;2023-08-06T06:24:52;16.40;;;4.75;;
77955;SDS011;67152;36.266;32.294;2023-08-06T06:27:19;13.50;;;4.90;;
77955;SDS011;67152;36.266;32.294;2023-08-06T06:29:46;14.60;;;5.00;;
77955;SDS011;67152;36.266;32.294;2023-08-06T06:32:12;14.02;;;4.85;;
77955;SDS011;67152;36.266;32.294;2023-08-06T06:34:39;16.70;;;5.18;;
77955;SDS011;67152;36.266;32.294;2023-08-06T06:37:05;13.73;;;4.75;;
77955;SDS011;67152;36.266;32.294;2023-08-06T06:39:32;14.57;;;4.85;;
77955;SDS011;67152;36.266;32.294;2023-08-06T06:41:59;13.38;;;4.72;;
77955;SDS011;67152;36.266;32.294;2023-08-06T06:44:26;15.80;;;5.35;;
77955;SDS011;67152;36.266;32.294;2023-08-06T06:46:52;18.17;;;5.00;;
77955;SDS011;67152;36.266;32.294;2023-08-06T06:49:19;14.70;;;5.40;;
77955;SDS011;67152;36.266;32.294;2023-08-06T06:51:45;16.35;;;5.80;;
77955;SDS011;67152;36.266;32.294;2023-08-06T06:54:12;15.43;;;5.45;;
77955;SDS011;67152;36.266;32.294;2023-08-06T06:56:39;13.65;;;5.18;;
77955;SDS011;67152;36.266;32.294;2023-08-06T06:59:05;19.42;;;5.65;;
77955;SDS011;67152;36.266;32.294;2023-08-06T07:01:32;12.45;;;4.85;;
77955;SDS011;67152;36.266;32.294;2023-08-06T07:03:58;17.55;;;5.88;;
77955;SDS011;67152;36.266;32.294;2023-08-06T07:06:30;14.73;;;5.32;;
77955;SDS011;67152;36.266;32.294;2023-08-06T07:08:57;20.35;;;5.32;;
77955;SDS011;67152;36.266;32.294;2023-08-06T07:11:24;13.38;;;5.32;;
77955;SDS011;67152;36.266;32.294;2023-08-06T07:13:55;17.15;;;5.20;;
77955;SDS011;67152;36.266;32.294;2023-08-06T07:16:24;13.60;;;5.28;;
77955;SDS011;67152;36.266;32.294;2023-08-06T07:18:52;16.48;;;5.68;;
77955;SDS011;67152;36.266;32.294;2023-08-06T07:21:19;16.35;;;5.60;;
77955;SDS011;67152;36.266;32.294;2023-08-06T07:23:46;11.88;;;5.40;;
77955;SDS011;67152;36.266;32.294;2023-08-06T07:26:15;21.75;;;5.57;;
77955;SDS011;67152;36.266;32.294;2023-08-06T07:28:42;14.23;;;5.22;;
77955;SDS011;67152;36.266;32.294;2023-08-06T07:31:10;14.43;;;4.75;;
77955;SDS011;67152;36.266;32.294;2023-08-06T07:33:37;11.15;;;4.22;;
77955;SDS011;67152;36.266;32.294;2023-08-06T07:36:13;8.23;;;4.22;;
77955;SDS011;67152;36.266;32.294;2023-08-06T07:38:40;12.73;;;4.97;;
77955;SDS011;67152;36.266;32.294;2023-08-06T07:41:07;20.48;;;5.05;;
77955;SDS011;67152;36.266;32.294;2023-08-06T07:43:35;13.82;;;4.78;;
77955;SDS011;67152;36.266;32.294;2023-08-06T07:46:01;14.20;;;5.30;;
77955;SDS011;67152;36.266;32.294;2023-08-06T07:48:28;13.27;;;4.90;;
77955;SDS011;67152;36.266;32.294;2023-08-06T07:50:55;17.45;;;4.80;;
77955;SDS011;67152;36.266;32.294;2023-08-06T07:53:22;12.05;;;4.32;;
77955;SDS011;67152;36.266;32.294;2023-08-06T07:55:53;13.23;;;4.78;;
77955;SDS011;67152;36.266;32.294;2023-08-06T07:58:20;12.68;;;4.88;;
77955;SDS011;67152;36.266;32.294;2023-08-06T08:00:46;11.55;;;4.35;;
77955;SDS011;67152;36.266;32.294;2023-08-06T08:03:14;23.30;;;5.30;;
77955;SDS011;67152;36.266;32.294;2023-08-06T08:05:41;10.27;;;4.32;;
77955;SDS011;67152;36.266;32.294;2023-08-06T08:08:09;14.57;;;4.45;;
77955;SDS011;67152;36.266;32.294;2023-08-06T08:10:36;16.38;;;5.22;;
77955;SDS011;67152;36.266;32.294;2023-08-06T08:13:04;15.05;;;4.63;;
77955;SDS011;67152;36.266;32.294;2023-08-06T08:15:31;19.55;;;4.65;;
77955;SDS011;67152;36.266;32.294;2023-08-06T08:17:59;9.70;;;4.75;;
77955;SDS011;67152;36.266;32.294;2023-08-06T08:20:26;22.70;;;5.00;;
77955;SDS011;67152;36.266;32.294;2023-08-06T08:23:16;12.25;;;4.30;;
77955;SDS011;67152;36.266;32.294;2023-08-06T08:25:42;10.57;;;4.10;;
77955;SDS011;67152;36.266;32.294;2023-08-06T08:28:09;14.45;;;4.70;;
77955;SDS011;67152;36.266;32.294;2023-08-06T08:30:36;10.27;;;4.43;;
77955;SDS011;67152;36.266;32.294;2023-08-06T08:33:02;14.48;;;4.57;;
77955;SDS011;67152;36.266;32.294;2023-08-06T08:35:29;12.63;;;4.35;;
77955;SDS011;67152;36.266;32.294;2023-08-06T08:37:56;13.43;;;4.10;;
77955;SDS011;67152;36.266;32.294;2023-08-06T08:40:22;33.03;;;5.07;;
77955;SDS011;67152;36.266;32.294;2023-08-06T08:43:01;17.67;;;4.35;;
77955;SDS011;67152;36.266;32.294;2023-08-06T08:45:29;21.20;;;4.75;;
77955;SDS011;67152;36.266;32.294;2023-08-06T08:47:55;11.82;;;4.55;;
77955;SDS011;67152;36.266;32.294;2023-08-06T08:50:22;10.30;;;4.13;;
77955;SDS011;67152;36.266;32.294;2023-08-06T08:52:49;14.50;;;4.60;;
77955;SDS011;67152;36.266;32.294;2023-08-06T08:55:17;12.55;;;4.72;;
77955;SDS011;67152;36.266;32.294;2023-08-06T08:57:44;13.63;;;4.25;;
77955;SDS011;67152;36.266;32.294;2023-08-06T09:00:11;20.85;;;5.00;;
77955;SDS011;67152;36.266;32.294;2023-08-06T09:02:41;13.82;;;4.35;;
77955;SDS011;67152;36.266;32.294;2023-08-06T09:05:12;12.30;;;4.68;;
77955;SDS011;67152;36.266;32.294;2023-08-06T09:07:42;11.77;;;4.57;;
77955;SDS011;67152;36.266;32.294;2023-08-06T09:10:16;12.98;;;4.93;;
77955;SDS011;67152;36.266;32.294;2023-08-06T09:12:47;11.05;;;4.00;;
77955;SDS011;67152;36.266;32.294;2023-08-06T09:15:19;11.13;;;3.90;;
77955;SDS011;67152;36.266;32.294;2023-08-06T09:17:47;16.77;;;4.55;;
77955;SDS011;67152;36.266;32.294;2023-08-06T09:20:14;11.85;;;4.50;;
77955;SDS011;67152;36.266;32.294;2023-08-06T09:22:42;14.35;;;4.57;;
77955;SDS011;67152;36.266;32.294;2023-08-06T09:25:21;19.90;;;4.50;;
77955;SDS011;67152;36.266;32.294;2023-08-06T09:27:51;12.35;;;4.47;;
77955;SDS011;67152;36.266;32.294;2023-08-06T09:30:29;14.30;;;4.80;;
77955;SDS011;67152;36.266;32.294;2023-08-06T09:33:03;14.82;;;4.63;;
77955;SDS011;67152;36.266;32.294;2023-08-06T09:35:31;12.40;;;4.65;;
77955;SDS011;67152;36.266;32.294;2023-08-06T09:38:07;12.65;;;4.57;;
77955;SDS011;67152;36.266;32.294;2023-08-06T09:40:36;15.18;;;4.15;;
77955;SDS011;67152;36.266;32.294;2023-08-06T09:43:04;12.80;;;4.07;;
77955;SDS011;67152;36.266;32.294;2023-08-06T09:45:32;16.17;;;4.63;;
77955;SDS011;67152;36.266;32.294;2023-08-06T09:48:06;13.05;;;4.80;;
77955;SDS011;67152;36.266;32.294;2023-08-06T09:50:38;16.20;;;5.00;;
77955;SDS011;67152;36.266;32.294;2023-08-06T09:53:07;16.42;;;5.15;;
77955;SDS011;67152;36.266;32.294;2023-08-06T09:55:37;15.27;;;4.60;;
77955;SDS011;67152;36.266;32.294;2023-08-06T09:58:07;15.05;;;4.60;;
77955;SDS011;67152;36.266;32.294;2023-08-06T10:00:34;14.65;;;4.57;;
77955;SDS011;67152;36.266;32.294;2023-08-06T10:03:03;14.93;;;4.63;;
77955;SDS011;67152;36.266;32.294;2023-08-06T10:05:32;43.97;;;6.28;;
77955;SDS011;67152;36.266;32.294;2023-08-06T10:07:59;14.40;;;4.68;;
77955;SDS011;67152;36.266;32.294;2023-08-06T10:10:28;13.20;;;4.20;;
77955;SDS011;67152;36.266;32.294;2023-08-06T10:13:11;15.98;;;5.30;;
77955;SDS011;67152;36.266;32.294;2023-08-06T10:15:40;13.07;;;4.90;;
77955;SDS011;67152;36.266;32.294;2023-08-06T10:18:07;13.70;;;5.28;;
77955;SDS011;67152;36.266;32.294;2023-08-06T10:20:35;16.92;;;5.07;;
77955;SDS011;67152;36.266;32.294;2023-08-06T10:23:02;22.30;;;4.75;;
77955;SDS011;67152;36.266;32.294;2023-08-06T10:25:34;15.55;;;5.43;;
77955;SDS011;67152;36.266;32.294;2023-08-06T10:28:10;14.02;;;4.90;;
77955;SDS011;67152;36.266;32.294;2023-08-06T10:30:46;14.82;;;4.90;;
77955;SDS011;67152;36.266;32.294;2023-08-06T10:33:13;9.82;;;4.28;;
77955;SDS011;67152;36.266;32.294;2023-08-06T10:35:44;12.10;;;4.75;;
77955;SDS011;67152;36.266;32.294;2023-08-06T10:38:12;22.90;;;4.97;;
77955;SDS011;67152;36.266;32.294;2023-08-06T10:40:41;14.43;;;5.10;;
77955;SDS011;67152;36.266;32.294;2023-08-06T10:43:11;10.43;;;4.63;;
77955;SDS011;67152;36.266;32.294;2023-08-06T10:45:58;12.48;;;5.03;;
77955;SDS011;67152;36.266;32.294;2023-08-06T10:48:38;19.83;;;5.55;;
77955;SDS011;67152;36.266;32.294;2023-08-06T10:51:11;27.85;;;6.57;;
77955;SDS011;67152;36.266;32.294;2023-08-06T10:53:49;20.45;;;5.20;;
77955;SDS011;67152;36.266;32.294;2023-08-06T10:56:18;13.38;;;4.60;;
77955;SDS011;67152;36.266;32.294;2023-08-06T10:58:46;13.30;;;4.60;;
77955;SDS011;67152;36.266;32.294;2023-08-06T11:01:13;12.10;;;4.85;;
77955;SDS011;67152;36.266;32.294;2023-08-06T11:03:45;9.60;;;4.65;;
77955;SDS011;67152;36.266;32.294;2023-08-06T11:06:20;15.80;;;4.90;;
77955;SDS011;67152;36.266;32.294;2023-08-06T11:08:50;16.65;;;5.20;;
77955;SDS011;67152;36.266;32.294;2023-08-06T11:11:19;22.40;;;5.10;;
77955;SDS011;67152;36.266;32.294;2023-08-06T11:13:46;14.02;;;4.30;;
77955;SDS011;67152;36.266;32.294;2023-08-06T11:16:16;12.00;;;5.00;;
77955;SDS011;67152;36.266;32.294;2023-08-06T11:18:45;10.00;;;4.15;;
77955;SDS011;67152;36.266;32.294;2023-08-06T11:21:13;16.92;;;5.43;;
77955;SDS011;67152;36.266;32.294;2023-08-06T11:23:45;14.10;;;5.00;;
77955;SDS011;67152;36.266;32.294;2023-08-06T11:26:11;12.30;;;5.15;;
77955;SDS011;67152;36.266;32.294;2023-08-06T11:28:38;13.80;;;5.20;;
77955;SDS011;67152;36.266;32.294;2023-08-06T11:31:06;14.82;;;5.28;;
77955;SDS011;67152;36.266;32.294;2023-08-06T11:33:32;37.50;;;6.18;;
77955;SDS011;67152;36.266;32.294;2023-08-06T11:35:59;12.68;;;4.68;;
77955;SDS011;67152;36.266;32.294;2023-08-06T11:38:32;22.52;;;5.70;;
77955;SDS011;67152;36.266;32.294;2023-08-06T11:41:24;17.20;;;5.60;;
77955;SDS011;67152;36.266;32.294;2023-08-06T11:43:55;17.98;;;4.75;;
77955;SDS011;67152;36.266;32.294;2023-08-06T11:46:22;11.35;;;4.45;;
77955;SDS011;67152;36.266;32.294;2023-08-06T11:48:51;12.40;;;5.05;;
77955;SDS011;67152;36.266;32.294;2023-08-06T11:51:24;13.32;;;4.72;;
77955;SDS011;67152;36.266;32.294;2023-08-06T11:53:55;15.90;;;5.78;;
77955;SDS011;67152;36.266;32.294;2023-08-06T11:56:27;17.10;;;5.55;;
77955;SDS011;67152;36.266;32.294;2023-08-06T11:58:55;17.23;;;5.78;;
77955;SDS011;67152;36.266;32.294;2023-08-06T12:01:28;18.88;;;5.10;;
77955;SDS011;67152;36.266;32.294;2023-08-06T12:03:59;16.15;;;5.18;;
77955;SDS011;67152;36.266;32.294;2023-08-06T12:06:44;16.33;;;5.40;;
77955;SDS011;67152;36.266;32.294;2023-08-06T12:09:15;17.35;;;5.78;;
77955;SDS011;67152;36.266;32.294;2023-08-06T12:11:43;21.40;;;5.88;;
77955;SDS011;67152;36.266;32.294;2023-08-06T12:14:10;12.88;;;4.60;;
77955;SDS011;67152;36.266;32.294;2023-08-06T12:16:37;12.38;;;4.57;;
77955;SDS011;67152;36.266;32.294;2023-08-06T12:19:04;12.25;;;4.43;;
77955;SDS011;67152;36.266;32.294;2023-08-06T12:21:30;12.18;;;5.22;;
77955;SDS011;67152;36.266;32.294;2023-08-06T12:23:59;12.52;;;5.53;;
77955;SDS011;67152;36.266;32.294;2023-08-06T12:26:26;15.70;;;5.53;;
77955;SDS011;67152;36.266;32.294;2023-08-06T12:28:53;16.30;;;5.75;;
77955;SDS011;67152;36.266;32.294;2023-08-06T12:31:21;16.67;;;5.47;;
77955;SDS011;67152;36.266;32.294;2023-08-06T12:33:47;21.90;;;6.78;;
77955;SDS011;67152;36.266;32.294;2023-08-06T12:36:14;13.32;;;5.15;;
77955;SDS011;67152;36.266;32.294;2023-08-06T12:38:41;18.20;;;5.40;;
77955;SDS011;67152;36.266;32.294;2023-08-06T12:41:08;16.45;;;5.78;;
77955;SDS011;67152;36.266;32.294;2023-08-06T12:43:35;18.85;;;5.00;;
77955;SDS011;67152;36.266;32.294;2023-08-06T12:46:02;21.73;;;7.68;;
77955;SDS011;67152;36.266;32.294;2023-08-06T12:48:30;16.27;;;6.28;;
77955;SDS011;67152;36.266;32.294;2023-08-06T12:53:23;17.10;;;5.75;;
77955;SDS011;67152;36.266;32.294;2023-08-06T12:55:49;16.30;;;6.32;;
77955;SDS011;67152;36.266;32.294;2023-08-06T12:58:16;23.25;;;6.38;;
77955;SDS011;67152;36.266;32.294;2023-08-06T13:00:43;13.80;;;5.80;;
77955;SDS011;67152;36.266;32.294;2023-08-06T13:03:10;15.57;;;6.05;;
77955;SDS011;67152;36.266;32.294;2023-08-06T13:05:36;16.92;;;6.68;;
77955;SDS011;67152;36.266;32.294;2023-08-06T13:08:03;15.40;;;6.00;;
77955;SDS011;67152;36.266;32.294;2023-08-06T13:10:30;16.90;;;7.10;;
77955;SDS011;67152;36.266;32.294;2023-08-06T13:13:03;16.95;;;6.45;;
77955;SDS011;67152;36.266;32.294;2023-08-06T13:15:35;36.33;;;7.30;;
77955;SDS011;67152;36.266;32.294;2023-08-06T13:18:04;16.67;;;6.63;;
77955;SDS011;67152;36.266;32.294;2023-08-06T13:20:33;19.63;;;6.32;;
77955;SDS011;67152;36.266;32.294;2023-08-06T13:23:00;47.75;;;7.97;;
77955;SDS011;67152;36.266;32.294;2023-08-06T13:25:27;17.70;;;6.60;;
77955;SDS011;67152;36.266;32.294;2023-08-06T13:28:00;20.00;;;6.68;;
77955;SDS011;67152;36.266;32.294;2023-08-06T13:30:26;20.58;;;6.57;;
77955;SDS011;67152;36.266;32.294;2023-08-06T13:32:53;11.57;;;6.13;;
77955;SDS011;67152;36.266;32.294;2023-08-06T13:35:22;17.40;;;7.32;;
77955;SDS011;67152;36.266;32.294;2023-08-06T13:37:49;15.35;;;6.70;;
77955;SDS011;67152;36.266;32.294;2023-08-06T13:40:16;22.38;;;7.45;;
77955;SDS011;67152;36.266;32.294;2023-08-06T13:42:42;13.60;;;6.95;;
77955;SDS011;67152;36.266;32.294;2023-08-06T13:45:09;19.48;;;7.28;;
77955;SDS011;67152;36.266;32.294;2023-08-06T13:47:36;19.63;;;7.60;;
77955;SDS011;67152;36.266;32.294;2023-08-06T13:50:04;17.63;;;6.88;;
77955;SDS011;67152;36.266;32.294;2023-08-06T13:52:35;16.63;;;6.75;;
77955;SDS011;67152;36.266;32.294;2023-08-06T13:55:01;20.75;;;7.03;;
77955;SDS011;67152;36.266;32.294;2023-08-06T13:57:29;19.00;;;6.78;;
77955;SDS011;67152;36.266;32.294;2023-08-06T13:59:56;19.80;;;7.53;;
77955;SDS011;67152;36.266;32.294;2023-08-06T14:04:49;18.02;;;7.55;;
77955;SDS011;67152;36.266;32.294;2023-08-06T14:07:15;18.08;;;7.40;;
77955;SDS011;67152;36.266;32.294;2023-08-06T14:09:42;16.33;;;7.63;;
77955;SDS011;67152;36.266;32.294;2023-08-06T14:12:10;22.85;;;8.15;;
77955;SDS011;67152;36.266;32.294;2023-08-06T14:14:36;19.60;;;8.20;;
77955;SDS011;67152;36.266;32.294;2023-08-06T14:17:03;19.98;;;7.82;;
77955;SDS011;67152;36.266;32.294;2023-08-06T14:19:30;19.73;;;8.25;;
77955;SDS011;67152;36.266;32.294;2023-08-06T14:21:57;21.50;;;8.05;;
77955;SDS011;67152;36.266;32.294;2023-08-06T14:24:24;17.52;;;7.65;;
77955;SDS011;67152;36.266;32.294;2023-08-06T14:26:50;19.42;;;8.00;;
77955;SDS011;67152;36.266;32.294;2023-08-06T14:29:17;20.95;;;7.35;;
77955;SDS011;67152;36.266;32.294;2023-08-06T14:31:44;25.73;;;8.27;;
77955;SDS011;67152;36.266;32.294;2023-08-06T14:34:10;15.27;;;7.45;;
77955;SDS011;67152;36.266;32.294;2023-08-06T14:36:37;19.10;;;9.20;;
77955;SDS011;67152;36.266;32.294;2023-08-06T14:39:04;21.88;;;8.55;;
77955;SDS011;67152;36.266;32.294;2023-08-06T14:46:23;22.65;;;9.10;;
77955;SDS011;67152;36.266;32.294;2023-08-06T14:48:50;26.38;;;10.82;;
77955;SDS011;67152;36.266;32.294;2023-08-06T14:53:45;27.17;;;9.93;;
77955;SDS011;67152;36.266;32.294;2023-08-06T14:56:12;20.35;;;9.00;;
77955;SDS011;67152;36.266;32.294;2023-08-06T15:03:31;25.48;;;8.20;;
77955;SDS011;67152;36.266;32.294;2023-08-06T15:05:57;18.45;;;8.52;;
77955;SDS011;67152;36.266;32.294;2023-08-06T15:08:24;23.48;;;9.00;;
77955;SDS011;67152;36.266;32.294;2023-08-06T15:13:18;18.20;;;7.63;;